Time;durP1;ratioP1;P1;durP2;ratioP2;P2;SDS_P1;SDS_P2;PMS_P1;PMS_P2;Temp;Humidity;BMP_temperature;BMP_pressure;BME280_temperature;BME280_humidity;BME280_pressure;Samples;Min_cycle;Max_cycle;Signal;HPM_P1;HPM_P2
2022/12/30 00:00:49;;;;;;;128.48;43.33;;;1.90;99.90;;;;;;5052786;28;20029;-66
2022/12/30 00:03:15;;;;;;;110.15;44.10;;;1.90;99.90;;;;;;5052753;28;20074;-66
2022/12/30 00:05:41;;;;;;;133.40;45.20;;;1.80;99.90;;;;;;5052283;28;20033;-66
2022/12/30 00:08:45;;;;;;;125.65;45.95;;;1.90;99.90;;;;;;5052666;28;20025;-66
2022/12/30 00:10:55;;;;;;;164.30;45.35;;;1.90;99.90;;;;;;5052252;28;20033;-66
2022/12/30 00:35:19;;;;;;;130.65;45.65;;;1.90;99.90;;;;;;5056071;28;20044;-66
2022/12/30 00:37:44;;;;;;;120.15;46.22;;;1.90;99.90;;;;;;5055579;28;20354;-66
2022/12/30 00:40:11;;;;;;;120.93;45.92;;;1.90;99.90;;;;;;5056059;28;20485;-66
2022/12/30 00:45:23;;;;;;;99.82;45.25;;;1.90;99.90;;;;;;5055953;28;20036;-66
2022/12/30 00:47:49;;;;;;;102.68;45.97;;;2.00;99.90;;;;;;5055431;28;20066;-66
2022/12/30 00:58:28;;;;;;;108.75;47.15;;;2.00;99.90;;;;;;5055500;28;20048;-67
2022/12/30 01:00:54;;;;;;;106.10;48.85;;;2.00;99.90;;;;;;5055900;28;20462;-66
2022/12/30 01:03:20;;;;;;;107.43;47.63;;;2.00;99.90;;;;;;5055927;28;20021;-66
2022/12/30 01:05:46;;;;;;;103.95;48.20;;;2.00;99.90;;;;;;5055142;28;20454;-66
2022/12/30 01:08:11;;;;;;;108.13;49.13;;;2.00;99.90;;;;;;5055691;28;20052;-66
2022/12/30 01:10:40;;;;;;;97.15;48.25;;;2.00;99.90;;;;;;5054987;28;20017;-66
2022/12/30 01:13:06;;;;;;;103.53;47.35;;;2.00;99.90;;;;;;5054469;28;20527;-66
2022/12/30 01:15:32;;;;;;;101.07;47.03;;;2.00;99.90;;;;;;5055280;28;20384;-66
2022/12/30 01:17:58;;;;;;;92.25;46.15;;;2.10;99.90;;;;;;5055258;28;20104;-65
2022/12/30 01:20:24;;;;;;;100.50;46.63;;;2.10;99.90;;;;;;5055459;28;20026;-67
2022/12/30 01:22:50;;;;;;;95.68;46.53;;;2.10;99.90;;;;;;5055135;28;20029;-66
2022/12/30 01:25:15;;;;;;;99.15;48.28;;;2.10;99.90;;;;;;5055396;28;20384;-67
2022/12/30 01:27:41;;;;;;;94.85;46.00;;;2.10;99.90;;;;;;5054979;28;20041;-67
2022/12/30 01:30:08;;;;;;;98.65;46.72;;;2.10;99.90;;;;;;5055455;28;20024;-67
2022/12/30 01:32:36;;;;;;;93.97;45.45;;;2.10;99.90;;;;;;5054837;28;20032;-67
2022/12/30 01:35:03;;;;;;;94.55;46.90;;;2.10;99.90;;;;;;5053868;28;20536;-67
2022/12/30 01:37:28;;;;;;;85.85;43.08;;;2.10;99.90;;;;;;5054814;28;20041;-67
2022/12/30 01:39:54;;;;;;;84.93;44.35;;;2.10;99.90;;;;;;5055560;28;20067;-66
2022/12/30 01:42:23;;;;;;;89.18;45.60;;;2.10;99.90;;;;;;5055165;28;20067;-65
2022/12/30 01:44:48;;;;;;;98.95;46.10;;;2.10;99.90;;;;;;5053457;28;20043;-65
2022/12/30 01:47:33;;;;;;;81.55;43.78;;;2.10;99.90;;;;;;5054988;28;20124;-66
2022/12/30 01:50:06;;;;;;;93.28;44.97;;;2.20;99.90;;;;;;5054961;28;20024;-66
2022/12/30 01:52:34;;;;;;;89.68;45.08;;;2.20;99.90;;;;;;5054631;28;20509;-67
2022/12/30 01:55:07;;;;;;;96.03;45.88;;;2.20;99.90;;;;;;5054893;28;20024;-67
2022/12/30 01:57:34;;;;;;;105.03;45.67;;;2.20;99.90;;;;;;5054148;28;20061;-67
2022/12/30 02:00:03;;;;;;;102.68;47.63;;;2.20;99.90;;;;;;5054597;28;20454;-67
2022/12/30 02:02:30;;;;;;;103.93;47.72;;;2.20;99.90;;;;;;5054485;28;20430;-66
2022/12/30 02:04:57;;;;;;;94.68;47.35;;;2.20;99.90;;;;;;5054737;28;20025;-67
2022/12/30 02:07:32;;;;;;;100.90;47.20;;;2.20;99.90;;;;;;5054742;28;20037;-67
2022/12/30 02:09:59;;;;;;;96.35;47.35;;;2.20;99.90;;;;;;5055046;28;20024;-67
2022/12/30 02:12:25;;;;;;;106.82;48.75;;;2.20;99.90;;;;;;5054537;28;20053;-67
2022/12/30 02:14:54;;;;;;;106.45;49.03;;;2.20;99.90;;;;;;5053835;28;20072;-67
2022/12/30 02:18:12;;;;;;;110.55;47.95;;;2.20;99.90;;;;;;5054036;28;20526;-66
2022/12/30 02:21:19;;;;;;;111.97;48.97;;;2.20;99.90;;;;;;5011628;28;20067;-67
2022/12/30 02:24:03;;;;;;;107.40;45.63;;;2.30;99.90;;;;;;4998955;28;20498;-67
2022/12/30 02:26:56;;;;;;;103.25;47.05;;;2.30;99.90;;;;;;5048400;28;20079;-67
2022/12/30 02:29:59;;;;;;;101.43;47.25;;;2.30;99.90;;;;;;5054266;28;20083;-67
2022/12/30 02:32:58;;;;;;;130.55;48.70;;;2.30;99.90;;;;;;5053798;28;20480;-67
2022/12/30 02:35:50;;;;;;;113.57;49.00;;;2.30;99.90;;;;;;5053790;28;20362;-66
2022/12/30 02:38:42;;;;;;;124.95;47.85;;;2.30;99.90;;;;;;5053846;28;20080;-67
2022/12/30 02:47:04;;;;;;;120.00;50.05;;;2.30;99.90;;;;;;5052318;28;20064;-67
2022/12/30 02:49:33;;;;;;;108.65;48.03;;;2.30;99.90;;;;;;5053365;28;20035;-67
2022/12/30 02:52:16;;;;;;;108.50;49.53;;;2.30;99.90;;;;;;5053264;28;20025;-67
2022/12/30 02:54:45;;;;;;;122.57;48.05;;;2.30;99.90;;;;;;5053278;28;20033;-67
2022/12/30 02:57:30;;;;;;;115.65;49.67;;;2.40;99.90;;;;;;5053573;28;20373;-67
2022/12/30 03:06:18;;;;;;;113.90;48.63;;;2.30;99.90;;;;;;5053181;28;20090;-67
2022/12/30 03:08:54;;;;;;;109.15;48.05;;;2.40;99.90;;;;;;5052987;28;20029;-67
2022/12/30 03:11:21;;;;;;;107.60;48.58;;;2.40;99.90;;;;;;5053368;28;20029;-67
2022/12/30 03:14:30;;;;;;;106.88;48.00;;;2.40;99.90;;;;;;5052405;28;20025;-67
2022/12/30 03:17:00;;;;;;;106.22;47.13;;;2.40;99.90;;;;;;5048597;28;20044;-66
2022/12/30 03:19:30;;;;;;;101.90;46.25;;;2.40;99.90;;;;;;5053454;28;20403;-67
2022/12/30 03:21:56;;;;;;;109.85;49.00;;;2.40;99.90;;;;;;5052814;28;20013;-67
2022/12/30 03:27:17;;;;;;;97.13;46.10;;;2.40;99.90;;;;;;5053144;28;20071;-67
2022/12/30 03:29:55;;;;;;;94.28;47.10;;;2.40;99.90;;;;;;5052274;28;20025;-64
2022/12/30 03:32:22;;;;;;;91.65;44.10;;;2.40;99.90;;;;;;5033065;28;20068;-65
2022/12/30 03:34:48;;;;;;;94.82;45.45;;;2.40;99.90;;;;;;5032876;28;20033;-66
2022/12/30 03:37:28;;;;;;;89.00;45.55;;;2.40;99.90;;;;;;5032705;28;20041;-66
2022/12/30 03:40:12;;;;;;;97.03;45.08;;;2.40;99.90;;;;;;5032321;28;20022;-65
2022/12/30 03:42:38;;;;;;;94.25;46.15;;;2.40;99.90;;;;;;5032800;28;20125;-65
2022/12/30 03:45:04;;;;;;;87.18;43.22;;;2.40;99.90;;;;;;5032726;28;20473;-65
2022/12/30 03:47:30;;;;;;;94.55;45.90;;;2.40;99.90;;;;;;5032837;28;20038;-65
2022/12/30 03:49:56;;;;;;;95.70;45.75;;;2.40;99.90;;;;;;5032352;28;20032;-67
2022/12/30 03:52:21;;;;;;;90.30;45.28;;;2.40;99.90;;;;;;5033134;28;20091;-65
2022/12/30 03:54:50;;;;;;;89.75;44.17;;;2.40;99.90;;;;;;5032365;28;20033;-65
2022/12/30 03:57:17;;;;;;;90.60;45.03;;;2.40;99.90;;;;;;5032412;28;20036;-66
2022/12/30 03:59:43;;;;;;;87.05;44.38;;;2.40;99.90;;;;;;5031977;28;20025;-66
2022/12/30 04:02:09;;;;;;;88.68;43.92;;;2.40;99.90;;;;;;5032684;28;20527;-64
2022/12/30 04:04:34;;;;;;;75.07;41.70;;;2.40;99.90;;;;;;5032574;28;20370;-66
2022/12/30 04:07:00;;;;;;;79.70;39.63;;;2.40;99.90;;;;;;5032014;28;20025;-66
2022/12/30 04:09:26;;;;;;;79.75;41.10;;;2.40;99.90;;;;;;5032739;28;20026;-65
2022/12/30 04:11:52;;;;;;;80.90;42.08;;;2.40;99.90;;;;;;5031955;28;20030;-67
2022/12/30 04:14:17;;;;;;;83.60;41.08;;;2.40;99.90;;;;;;5032600;28;20413;-65
2022/12/30 04:16:43;;;;;;;82.65;40.67;;;2.40;99.90;;;;;;5032239;28;20049;-66
2022/12/30 04:19:09;;;;;;;75.50;40.40;;;2.40;99.90;;;;;;5032585;28;20083;-65
2022/12/30 04:21:35;;;;;;;82.68;41.08;;;2.40;99.90;;;;;;5032523;28;20493;-66
2022/12/30 04:24:01;;;;;;;80.72;40.22;;;2.40;99.90;;;;;;5031977;28;20040;-67
2022/12/30 04:26:26;;;;;;;76.25;40.60;;;2.40;99.90;;;;;;5032650;28;20382;-67
2022/12/30 04:28:52;;;;;;;82.35;41.90;;;2.40;99.90;;;;;;5031824;28;20371;-67
2022/12/30 04:31:17;;;;;;;83.25;41.35;;;2.50;99.90;;;;;;5032459;28;20175;-65
2022/12/30 04:33:43;;;;;;;77.72;39.65;;;2.50;99.90;;;;;;5032023;28;20021;-67
2022/12/30 04:36:09;;;;;;;89.10;42.90;;;2.50;99.90;;;;;;5032316;28;20025;-66
2022/12/30 04:38:35;;;;;;;78.10;39.30;;;2.50;99.90;;;;;;5032346;28;20075;-67
2022/12/30 04:41:01;;;;;;;81.60;40.28;;;2.50;99.90;;;;;;5031691;28;20022;-67
2022/12/30 04:43:26;;;;;;;81.00;40.15;;;2.50;99.90;;;;;;5032504;28;20367;-66
2022/12/30 04:45:52;;;;;;;82.38;40.00;;;2.50;99.90;;;;;;5031875;28;20064;-67
2022/12/30 04:48:18;;;;;;;80.63;39.80;;;2.50;99.90;;;;;;5032327;28;20363;-65
2022/12/30 04:50:45;;;;;;;84.93;40.58;;;2.50;99.90;;;;;;5032179;28;20029;-67
2022/12/30 04:53:11;;;;;;;85.80;41.38;;;2.50;99.90;;;;;;5031984;28;20474;-67
2022/12/30 04:55:37;;;;;;;84.15;41.38;;;2.40;99.90;;;;;;5030928;28;20033;-66
2022/12/30 04:58:03;;;;;;;95.35;42.53;;;2.40;99.90;;;;;;5030638;28;20444;-67
2022/12/30 05:00:29;;;;;;;88.70;41.92;;;2.40;99.90;;;;;;5032010;28;20060;-66
2022/12/30 05:02:55;;;;;;;91.45;42.95;;;2.50;99.90;;;;;;5031440;28;20029;-67
2022/12/30 05:05:21;;;;;;;94.35;42.95;;;2.40;99.90;;;;;;5032042;28;20112;-66
2022/12/30 05:07:46;;;;;;;83.70;41.05;;;2.40;99.90;;;;;;5031863;28;20469;-67
2022/12/30 05:10:12;;;;;;;86.90;40.70;;;2.40;99.90;;;;;;5033664;28;20064;-67
2022/12/30 05:12:38;;;;;;;83.05;40.70;;;2.40;99.90;;;;;;5035858;28;20440;-67
2022/12/30 05:15:04;;;;;;;87.07;39.47;;;2.40;99.90;;;;;;5035259;28;20036;-67
2022/12/30 05:17:29;;;;;;;86.68;41.88;;;2.50;99.90;;;;;;5035415;28;20083;-66
2022/12/30 05:19:55;;;;;;;83.70;39.03;;;2.50;99.90;;;;;;5035250;28;20029;-65
2022/12/30 05:22:21;;;;;;;85.55;39.35;;;2.50;99.90;;;;;;5040429;28;20021;-65
2022/12/30 05:27:30;;;;;;;89.40;40.42;;;2.50;99.90;;;;;;5055056;28;20083;-65
2022/12/30 05:29:56;;;;;;;94.10;40.97;;;2.50;99.90;;;;;;5054785;28;20033;-66
2022/12/30 05:32:22;;;;;;;89.30;41.60;;;2.50;99.90;;;;;;5055401;28;20111;-66
2022/12/30 05:34:47;;;;;;;90.13;42.13;;;2.50;99.90;;;;;;5054815;28;20437;-66
2022/12/30 05:37:13;;;;;;;95.20;41.78;;;2.50;99.90;;;;;;5054555;28;20039;-65
2022/12/30 05:39:39;;;;;;;85.85;40.97;;;2.50;99.90;;;;;;5055352;28;20547;-65
2022/12/30 05:42:04;;;;;;;95.68;44.97;;;2.50;99.90;;;;;;5054821;28;20485;-65
2022/12/30 05:44:31;;;;;;;96.53;43.20;;;2.60;99.90;;;;;;5055026;28;20150;-66
2022/12/30 05:46:57;;;;;;;89.93;42.08;;;2.50;99.90;;;;;;5054662;28;20036;-67
2022/12/30 05:49:22;;;;;;;94.93;43.63;;;2.50;99.90;;;;;;5054642;28;20545;-66
2022/12/30 05:51:48;;;;;;;90.97;39.55;;;2.50;99.90;;;;;;5054169;28;20151;-68
2022/12/30 05:54:14;;;;;;;96.07;42.97;;;2.50;99.90;;;;;;5054999;28;20029;-66
2022/12/30 05:56:39;;;;;;;99.40;42.80;;;2.50;99.90;;;;;;5056937;28;20074;-66
2022/12/30 05:59:05;;;;;;;88.93;41.63;;;2.50;99.90;;;;;;5057269;28;20025;-66
2022/12/30 06:01:31;;;;;;;104.85;43.97;;;2.50;99.90;;;;;;5056458;28;20025;-66
2022/12/30 06:03:57;;;;;;;91.28;42.95;;;2.50;99.90;;;;;;5056822;28;20025;-67
2022/12/30 06:06:23;;;;;;;101.20;42.67;;;2.50;99.90;;;;;;5058111;28;20032;-67
2022/12/30 06:08:49;;;;;;;88.45;43.38;;;2.50;99.90;;;;;;5057254;28;20025;-69
2022/12/30 06:11:14;;;;;;;99.85;44.58;;;2.50;99.90;;;;;;5056932;28;20025;-67
2022/12/30 06:13:40;;;;;;;102.50;44.95;;;2.50;99.90;;;;;;5055814;28;20120;-67
2022/12/30 06:16:06;;;;;;;99.10;44.35;;;2.50;99.90;;;;;;5054211;28;20021;-66
2022/12/30 06:18:31;;;;;;;91.82;43.90;;;2.50;99.90;;;;;;5054512;28;20021;-67
2022/12/30 06:20:57;;;;;;;108.43;45.67;;;2.60;99.90;;;;;;5054734;28;20033;-67
2022/12/30 06:23:24;;;;;;;107.78;46.58;;;2.60;99.90;;;;;;5056717;28;20082;-67
2022/12/30 06:25:54;;;;;;;101.85;45.50;;;2.60;99.90;;;;;;5056432;28;20033;-67
2022/12/30 06:28:20;;;;;;;101.88;45.28;;;2.60;99.90;;;;;;5054315;28;20112;-65
2022/12/30 06:30:48;;;;;;;93.47;44.33;;;2.60;99.90;;;;;;5054185;28;20114;-65
2022/12/30 06:33:14;;;;;;;104.55;46.92;;;2.60;99.90;;;;;;5053591;28;20032;-66
2022/12/30 06:35:39;;;;;;;94.80;45.10;;;2.70;99.90;;;;;;5053762;28;20465;-66
2022/12/30 06:38:05;;;;;;;97.68;45.70;;;2.70;99.90;;;;;;5053616;28;20049;-66
2022/12/30 06:40:30;;;;;;;96.57;43.95;;;2.70;99.90;;;;;;5053535;28;20378;-65
2022/12/30 06:42:56;;;;;;;91.40;44.00;;;2.70;99.90;;;;;;5053394;28;20453;-65
2022/12/30 06:45:22;;;;;;;98.82;43.92;;;2.70;99.90;;;;;;5053711;28;20068;-65
2022/12/30 06:47:47;;;;;;;104.32;47.90;;;2.70;99.90;;;;;;5053822;28;20025;-65
2022/12/30 06:50:13;;;;;;;94.53;45.00;;;2.80;99.90;;;;;;5053055;28;20028;-65
2022/12/30 06:52:39;;;;;;;104.30;46.17;;;2.80;99.90;;;;;;5053557;28;20025;-65
2022/12/30 06:55:05;;;;;;;97.68;46.08;;;2.80;99.90;;;;;;5053229;28;20059;-67
2022/12/30 06:57:31;;;;;;;97.78;45.95;;;2.80;99.90;;;;;;5053547;28;20029;-67
2022/12/30 06:59:57;;;;;;;100.13;47.80;;;2.80;99.90;;;;;;5052746;28;20021;-67
2022/12/30 07:02:22;;;;;;;100.82;46.45;;;2.80;99.90;;;;;;5053467;28;20107;-67
2022/12/30 07:04:48;;;;;;;100.70;44.80;;;2.90;99.90;;;;;;5053259;28;20025;-66
2022/12/30 07:07:14;;;;;;;100.85;46.03;;;2.90;99.90;;;;;;5053069;28;20039;-67
2022/12/30 07:09:40;;;;;;;97.53;44.97;;;2.90;99.90;;;;;;5053292;28;20029;-67
2022/12/30 07:12:05;;;;;;;102.22;43.97;;;2.90;99.90;;;;;;5052655;28;20469;-67
2022/12/30 07:14:31;;;;;;;93.22;44.90;;;2.90;99.90;;;;;;5053240;28;20067;-67
2022/12/30 07:16:57;;;;;;;99.05;44.30;;;2.90;99.90;;;;;;5052553;28;20021;-65
2022/12/30 07:19:22;;;;;;;95.57;45.60;;;2.90;99.90;;;;;;5052959;28;20017;-65
2022/12/30 07:21:48;;;;;;;98.88;45.92;;;2.90;99.90;;;;;;5052987;28;20082;-65
2022/12/30 07:24:14;;;;;;;96.55;46.03;;;3.00;99.90;;;;;;5052601;28;20676;-65
2022/12/30 07:26:39;;;;;;;94.60;42.67;;;3.00;99.90;;;;;;5052957;28;20021;-66
2022/12/30 07:29:05;;;;;;;96.40;46.13;;;3.00;99.90;;;;;;5052080;28;20120;-66
2022/12/30 07:31:31;;;;;;;95.47;46.92;;;3.00;99.90;;;;;;5052952;28;20033;-65
2022/12/30 07:33:57;;;;;;;85.07;41.65;;;3.10;99.90;;;;;;5051833;28;20033;-66
2022/12/30 07:36:22;;;;;;;91.88;43.13;;;3.10;99.90;;;;;;5052849;28;20029;-65
2022/12/30 07:38:48;;;;;;;85.28;41.80;;;3.10;99.90;;;;;;5052773;28;20064;-65
2022/12/30 07:41:13;;;;;;;77.15;40.15;;;3.10;99.90;;;;;;5051066;28;20112;-65
2022/12/30 07:43:39;;;;;;;87.97;41.08;;;3.10;99.90;;;;;;5052678;28;20031;-65
2022/12/30 07:46:06;;;;;;;82.45;40.95;;;3.10;99.90;;;;;;5052000;28;20029;-65
2022/12/30 07:48:32;;;;;;;81.22;39.33;;;3.10;99.90;;;;;;5052745;28;20036;-65
2022/12/30 07:50:58;;;;;;;77.80;40.25;;;3.10;99.90;;;;;;5052198;28;20021;-65
2022/12/30 07:53:24;;;;;;;80.97;40.20;;;3.10;99.90;;;;;;5052733;28;20021;-65
2022/12/30 07:55:49;;;;;;;86.93;40.92;;;3.10;99.90;;;;;;5052683;28;20083;-66
2022/12/30 07:58:15;;;;;;;84.72;42.47;;;3.20;99.90;;;;;;5052046;28;20029;-66
2022/12/30 08:00:40;;;;;;;82.70;42.38;;;3.20;99.90;;;;;;5052457;28;20102;-66
2022/12/30 08:03:06;;;;;;;82.60;41.03;;;3.10;99.90;;;;;;5052038;28;20025;-66
2022/12/30 08:05:32;;;;;;;87.18;41.28;;;3.10;99.90;;;;;;5052491;28;20037;-67
2022/12/30 08:07:57;;;;;;;82.13;40.50;;;3.20;99.90;;;;;;5051965;28;20381;-68
2022/12/30 08:10:23;;;;;;;81.30;41.75;;;3.20;99.90;;;;;;5052650;28;20029;-67
2022/12/30 08:12:49;;;;;;;112.80;55.63;;;3.20;99.90;;;;;;5051392;28;20025;-67
2022/12/30 08:15:15;;;;;;;90.22;42.58;;;3.30;99.90;;;;;;5052155;28;20363;-67
2022/12/30 08:17:41;;;;;;;88.25;40.80;;;3.30;99.90;;;;;;5052656;28;20033;-67
2022/12/30 08:20:10;;;;;;;88.80;41.22;;;3.30;99.90;;;;;;5051759;28;20508;-67
2022/12/30 08:22:36;;;;;;;90.65;42.25;;;3.40;99.90;;;;;;5052352;28;20036;-67
2022/12/30 08:25:02;;;;;;;84.90;41.50;;;3.40;99.90;;;;;;5051851;28;20029;-67
2022/12/30 08:27:28;;;;;;;80.03;40.55;;;3.40;99.90;;;;;;5052042;28;20033;-67
2022/12/30 08:29:54;;;;;;;82.22;40.15;;;3.50;99.90;;;;;;5052604;28;20033;-66
2022/12/30 08:32:19;;;;;;;78.28;39.75;;;3.50;99.90;;;;;;5051787;28;20028;-67
2022/12/30 08:34:45;;;;;;;73.25;38.83;;;3.50;99.90;;;;;;5052385;28;20425;-67
2022/12/30 08:37:11;;;;;;;78.50;40.25;;;3.50;99.90;;;;;;5051795;28;20142;-67
2022/12/30 08:39:37;;;;;;;79.80;39.20;;;3.50;99.90;;;;;;5052442;28;20025;-67
2022/12/30 08:42:03;;;;;;;79.95;40.65;;;3.60;99.90;;;;;;5051971;28;20029;-67
2022/12/30 08:44:28;;;;;;;82.15;39.78;;;3.60;99.90;;;;;;5053630;28;20056;-67
2022/12/30 08:46:54;;;;;;;72.20;39.10;;;3.60;99.90;;;;;;5056013;28;20033;-67
2022/12/30 08:49:20;;;;;;;82.45;40.60;;;3.70;99.90;;;;;;5055671;28;20305;-67
2022/12/30 08:51:46;;;;;;;80.38;38.58;;;3.70;99.90;;;;;;5055728;28;20072;-67
2022/12/30 08:54:12;;;;;;;81.32;40.30;;;3.80;99.90;;;;;;5055694;28;20432;-67
2022/12/30 08:56:39;;;;;;;77.80;40.55;;;3.80;99.90;;;;;;5055973;28;20036;-67
2022/12/30 08:59:05;;;;;;;78.78;41.45;;;3.90;99.90;;;;;;5055549;28;20021;-67
2022/12/30 09:01:40;;;;;;;80.35;40.92;;;3.90;99.90;;;;;;5055940;28;20039;-67
2022/12/30 09:04:06;;;;;;;78.65;40.83;;;3.90;99.90;;;;;;5055418;28;20484;-67
2022/12/30 09:06:34;;;;;;;89.45;40.55;;;3.90;99.90;;;;;;5055571;28;20037;-68
2022/12/30 09:09:01;;;;;;;76.45;39.40;;;4.00;99.90;;;;;;5055668;28;20125;-67
2022/12/30 09:11:30;;;;;;;74.68;39.78;;;4.00;99.90;;;;;;5055137;28;20413;-67
2022/12/30 09:13:57;;;;;;;71.90;38.10;;;4.00;99.90;;;;;;5055426;28;20067;-66
2022/12/30 09:16:23;;;;;;;72.93;37.88;;;4.10;99.90;;;;;;5054932;28;20456;-67
2022/12/30 09:18:50;;;;;;;65.15;36.40;;;4.10;99.90;;;;;;5055467;28;20108;-67
2022/12/30 09:21:17;;;;;;;66.95;35.85;;;4.10;99.90;;;;;;5054618;28;20036;-67
2022/12/30 09:23:43;;;;;;;60.78;34.83;;;4.10;99.90;;;;;;5055566;28;20033;-67
2022/12/30 09:26:12;;;;;;;62.75;32.50;;;4.10;99.90;;;;;;5055049;28;20470;-67
2022/12/30 09:28:38;;;;;;;65.75;34.22;;;4.10;99.90;;;;;;5055033;28;20365;-65
2022/12/30 09:31:05;;;;;;;61.13;34.28;;;4.10;99.90;;;;;;5054755;28;20021;-68
2022/12/30 09:33:31;;;;;;;54.80;32.20;;;4.10;99.90;;;;;;5055114;28;20027;-67
2022/12/30 09:35:56;;;;;;;57.00;32.72;;;4.00;99.90;;;;;;5054906;28;20029;-66
2022/12/30 09:38:22;;;;;;;64.78;34.55;;;4.00;99.90;;;;;;5054610;28;20051;-65
2022/12/30 09:43:15;;;;;;;56.80;32.53;;;4.00;99.90;;;;;;5054783;28;20104;-65
2022/12/30 09:44:18;;;;;;;62.95;33.45;;;4.00;99.90;;;;;;5054406;28;20445;-65
2022/12/30 09:46:51;;;;;;;60.35;34.33;;;4.00;99.90;;;;;;5054982;28;20025;-67
2022/12/30 09:49:25;;;;;;;58.00;32.42;;;4.00;99.90;;;;;;5054525;28;20025;-67
2022/12/30 09:52:20;;;;;;;54.10;32.25;;;4.00;99.90;;;;;;5054587;28;20032;-67
2022/12/30 09:54:53;;;;;;;58.63;33.85;;;4.00;99.90;;;;;;5030610;28;20041;-66
2022/12/30 09:57:32;;;;;;;64.50;36.95;;;4.10;99.90;;;;;;5033602;28;20025;-66
2022/12/30 10:00:12;;;;;;;60.33;35.70;;;4.10;99.90;;;;;;5034779;28;20029;-66
2022/12/30 10:02:53;;;;;;;66.70;36.50;;;4.10;99.90;;;;;;5034728;28;20438;-67
2022/12/30 10:05:43;;;;;;;65.65;35.97;;;4.20;99.90;;;;;;5034348;28;20386;-67
2022/12/30 10:08:38;;;;;;;62.00;34.93;;;4.20;99.90;;;;;;5034189;28;20033;-67
2022/12/30 10:11:26;;;;;;;62.33;35.20;;;4.20;99.90;;;;;;5034411;28;20025;-66
2022/12/30 10:14:30;;;;;;;62.85;35.55;;;4.20;99.90;;;;;;5034165;28;20183;-66
2022/12/30 10:17:19;;;;;;;60.55;34.75;;;4.20;99.90;;;;;;5034383;28;20101;-66
2022/12/30 10:19:50;;;;;;;55.13;32.17;;;4.30;99.90;;;;;;5034467;28;20022;-66
2022/12/30 10:22:25;;;;;;;60.08;34.67;;;4.30;99.90;;;;;;5033574;28;20034;-66
2022/12/30 10:25:11;;;;;;;65.10;35.47;;;4.20;99.90;;;;;;5034247;28;20072;-66
2022/12/30 10:27:45;;;;;;;57.70;33.15;;;4.30;99.90;;;;;;5034286;28;20033;-66
2022/12/30 10:30:20;;;;;;;58.30;34.75;;;4.30;99.90;;;;;;5033897;28;20160;-68
2022/12/30 10:33:04;;;;;;;56.50;33.15;;;4.30;99.90;;;;;;5034177;28;20030;-66
2022/12/30 10:35:32;;;;;;;62.92;35.25;;;4.30;99.90;;;;;;5033999;28;20029;-66
2022/12/30 10:38:09;;;;;;;61.80;33.53;;;4.40;99.90;;;;;;5033728;28;20049;-66
2022/12/30 10:41:18;;;;;;;56.45;32.80;;;4.40;99.90;;;;;;5034186;28;20029;-65
2022/12/30 10:44:00;;;;;;;57.50;33.50;;;4.40;99.90;;;;;;5020755;28;20048;-66
2022/12/30 10:46:41;;;;;;;57.83;33.20;;;4.50;99.90;;;;;;5033402;28;20033;-66
2022/12/30 10:49:31;;;;;;;52.28;32.33;;;4.60;99.90;;;;;;5033979;28;20056;-66
2022/12/30 10:51:57;;;;;;;60.03;33.22;;;4.70;99.90;;;;;;5032530;28;20536;-66
2022/12/30 10:54:23;;;;;;;56.55;34.08;;;4.90;99.90;;;;;;5033565;28;20037;-66
2022/12/30 10:56:49;;;;;;;53.53;30.30;;;5.00;99.90;;;;;;5033587;28;20075;-66
2022/12/30 10:59:18;;;;;;;50.33;30.75;;;5.20;99.90;;;;;;5033149;28;20034;-66
2022/12/30 11:01:47;;;;;;;47.97;30.20;;;5.30;99.90;;;;;;5033414;28;20057;-66
2022/12/30 11:04:33;;;;;;;52.08;29.70;;;5.40;99.90;;;;;;5033173;28;20112;-66
2022/12/30 11:07:01;;;;;;;48.85;30.40;;;5.60;99.90;;;;;;5033001;28;20029;-66
2022/12/30 11:09:27;;;;;;;47.92;30.13;;;5.70;99.90;;;;;;5032783;28;20021;-66
2022/12/30 11:14:45;;;;;;;52.13;30.27;;;5.70;99.90;;;;;;5033526;28;20095;-67
2022/12/30 11:17:41;;;;;;;54.00;31.80;;;5.80;99.90;;;;;;5032897;28;20030;-68
2022/12/30 11:20:13;;;;;;;53.88;31.48;;;5.90;99.90;;;;;;5033523;28;20061;-67
2022/12/30 11:22:49;;;;;;;58.60;32.17;;;5.90;99.90;;;;;;5033176;28;20104;-67
2022/12/30 11:25:35;;;;;;;63.70;34.17;;;5.80;99.90;;;;;;5051477;28;20029;-66
2022/12/30 11:28:05;;;;;;;61.90;33.38;;;5.70;99.90;;;;;;5053113;28;20040;-66
2022/12/30 11:30:38;;;;;;;58.40;32.20;;;5.70;99.90;;;;;;5051567;28;20029;-66
2022/12/30 11:33:06;;;;;;;56.95;32.28;;;5.80;99.90;;;;;;5053126;28;20029;-66
2022/12/30 11:35:47;;;;;;;57.17;32.90;;;5.90;99.90;;;;;;5052804;28;20048;-65
2022/12/30 11:38:46;;;;;;;58.15;33.08;;;6.00;99.90;;;;;;5052324;28;20383;-68
2022/12/30 11:41:29;;;;;;;51.88;30.70;;;6.10;99.90;;;;;;5040695;28;20118;-67
2022/12/30 11:44:00;;;;;;;55.40;31.58;;;6.20;99.90;;;;;;5052639;28;20369;-65
2022/12/30 11:46:32;;;;;;;58.13;31.77;;;6.30;99.90;;;;;;5051962;28;20064;-66
2022/12/30 11:49:04;;;;;;;52.00;31.42;;;6.20;99.90;;;;;;5052964;28;20035;-65
2022/12/30 11:51:42;;;;;;;51.42;31.00;;;6.20;99.90;;;;;;5052397;28;20100;-66
2022/12/30 11:54:10;;;;;;;49.72;29.63;;;6.20;99.90;;;;;;5052694;28;20029;-66
2022/12/30 11:56:55;;;;;;;49.50;28.98;;;6.20;99.90;;;;;;5051995;28;20441;-65
2022/12/30 11:59:35;;;;;;;49.72;29.58;;;6.30;99.90;;;;;;5052201;28;20029;-66
2022/12/30 12:02:05;;;;;;;46.25;29.35;;;6.40;99.90;;;;;;5052714;28;20031;-67
2022/12/30 12:04:39;;;;;;;46.22;29.25;;;6.50;99.90;;;;;;5052032;28;20110;-67
2022/12/30 12:07:29;;;;;;;45.33;29.60;;;6.60;99.90;;;;;;5052673;28;20064;-67
2022/12/30 12:09:58;;;;;;;47.90;30.47;;;6.70;99.90;;;;;;5046963;28;20115;-67
2022/12/30 12:12:27;;;;;;;50.95;30.92;;;6.70;99.90;;;;;;5052023;28;20250;-67
2022/12/30 12:15:06;;;;;;;48.47;30.40;;;6.80;99.90;;;;;;5052804;28;20029;-67
2022/12/30 12:17:52;;;;;;;47.90;30.33;;;6.80;99.90;;;;;;5052182;28;20094;-67
2022/12/30 12:20:41;;;;;;;48.53;29.85;;;6.90;99.90;;;;;;5055453;28;20040;-67
2022/12/30 12:23:16;;;;;;;45.50;30.23;;;7.00;99.90;;;;;;5056636;28;20021;-66
2022/12/30 12:26:03;;;;;;;47.38;29.90;;;7.10;99.90;;;;;;5056485;28;20036;-66
2022/12/30 12:28:30;;;;;;;47.58;29.15;;;7.10;99.90;;;;;;5055939;28;20029;-67
2022/12/30 12:31:20;;;;;;;43.90;28.27;;;7.20;99.90;;;;;;5056316;28;20021;-66
2022/12/30 12:34:14;;;;;;;47.38;29.60;;;7.30;99.90;;;;;;5056176;28;20029;-66
2022/12/30 12:37:01;;;;;;;44.50;27.77;;;7.40;99.90;;;;;;5051759;28;20064;-67
2022/12/30 12:39:52;;;;;;;42.55;27.60;;;7.40;99.90;;;;;;5055542;28;20458;-66
2022/12/30 12:42:28;;;;;;;;;;;7.40;99.90;;;;;;5056195;28;20103;-66
2022/12/30 12:45:18;;;;;;;46.13;28.38;;;7.40;99.90;;;;;;5056197;28;19909;-66
2022/12/30 12:48:08;;;;;;;43.88;27.95;;;7.50;99.90;;;;;;5056316;28;20029;-66
2022/12/30 12:51:01;;;;;;;43.45;27.85;;;7.50;99.90;;;;;;5055349;28;20488;-67
2022/12/30 12:53:29;;;;;;;42.13;26.83;;;7.50;99.90;;;;;;5055661;28;20031;-67
2022/12/30 12:56:04;;;;;;;45.97;28.65;;;7.60;99.90;;;;;;5055900;28;20025;-67
2022/12/30 12:58:45;;;;;;;52.97;30.48;;;7.60;99.90;;;;;;5055409;28;20413;-67
2022/12/30 13:01:52;;;;;;;49.55;29.85;;;7.70;99.90;;;;;;5055981;28;20398;-67
2022/12/30 13:04:24;;;;;;;46.50;28.88;;;7.70;99.90;;;;;;5055505;28;20549;-67
2022/12/30 13:06:58;;;;;;;46.03;28.52;;;7.70;99.90;;;;;;5055747;28;20109;-67
2022/12/30 13:09:38;;;;;;;46.00;30.42;;;7.60;99.90;;;;;;5055279;28;20033;-67
2022/12/30 13:12:17;;;;;;;48.53;30.70;;;7.70;99.90;;;;;;5055734;28;20024;-65
2022/12/30 13:14:48;;;;;;;47.60;30.08;;;7.70;99.90;;;;;;5055068;28;20033;-65
2022/12/30 13:17:23;;;;;;;45.15;29.40;;;7.70;99.90;;;;;;5055522;28;20025;-66
2022/12/30 13:19:55;;;;;;;47.53;30.30;;;7.70;99.90;;;;;;5055767;28;20029;-65
2022/12/30 13:22:28;;;;;;;48.17;29.75;;;7.70;99.90;;;;;;5054933;28;20078;-67
2022/12/30 13:24:54;;;;;;;52.50;30.00;;;7.60;99.90;;;;;;5055477;28;20036;-67
2022/12/30 13:27:28;;;;;;;54.20;32.03;;;7.50;99.90;;;;;;5054475;28;20037;-68
2022/12/30 13:29:56;;;;;;;54.90;31.42;;;7.50;99.90;;;;;;5054857;28;20024;-66
2022/12/30 13:32:43;;;;;;;55.28;30.98;;;7.30;99.90;;;;;;5054272;28;20040;-66
2022/12/30 13:35:34;;;;;;;57.40;32.40;;;7.10;99.90;;;;;;5055247;28;20033;-65
2022/12/30 13:38:08;;;;;;;54.10;31.30;;;7.00;99.90;;;;;;5054877;28;20432;-65
2022/12/30 13:40:56;;;;;;;48.15;31.02;;;6.90;99.90;;;;;;5054574;28;20060;-65
2022/12/30 13:43:30;;;;;;;51.75;30.60;;;6.90;99.90;;;;;;5054678;28;20111;-66
2022/12/30 13:45:57;;;;;;;51.88;31.33;;;6.80;99.90;;;;;;5054911;28;20029;-66
2022/12/30 13:48:24;;;;;;;50.50;30.77;;;6.70;99.90;;;;;;5054019;28;20087;-66
2022/12/30 13:51:02;;;;;;;52.25;29.33;;;6.70;99.90;;;;;;5054782;28;20028;-66